Latest Weather Observations for Beaudesert AWS

IDQ60801

Issued at 10:32 pm EST Tuesday 31 March 2015 (issued every 30 minutes, with the page automatically refreshed every 10 minutes)

About weather observations | Map of weather stations | Latest weather observations for QLD | Other Formats
Station Details ID: 040983 Name: BEAUDESERT DRUMLEY STREET Lat: -27.97 Lon: 152.99 Height: 47.81 m
Data from the previous 72 hours. | See also: Recent months at Beaudesert AWS
Date/Time
EST
Temp
°C
App
Temp
°C
Dew
Point
Rel
Hum
%
Delta-T
°C
Wind Press
QNH
hPa
Press
MSL
hPa
Rain
since 9 am
mm
Dir
 
Spd
km/h
Gust
km/h
Spd
kts
Gust
kts
31/10:30pm 19.3 21.7 17.1 87 1.3 CALM 0 0 0 0 1022.5 1022.3 0.0
31/10:00pm 19.6 21.3 17.2 86 1.5 SSW 4 6 2 3 1022.6 1022.4 0.0
31/09:30pm 19.6 21.8 17.4 87 1.3 SE 2 2 1 1 1023.0 1022.7 0.0
31/09:00pm 19.5 22.0 17.3 87 1.3 CALM 0 0 0 0 1022.9 1022.6 0.0
31/08:30pm 19.4 21.4 17.0 86 1.5 SSW 2 4 1 2 1022.9 1022.6 0.0
31/08:00pm 20.0 22.6 17.6 86 1.5 CALM 0 0 0 0 1022.6 1022.4 0.0
31/07:30pm 20.3 22.7 17.9 86 1.5 NE 2 4 1 2 1022.0 1021.8 0.0
31/07:00pm 20.0 22.6 17.4 85 1.6 CALM 0 2 0 1 1022.2 1022.0 0.0
31/06:30pm 20.6 22.9 17.6 83 1.8 NNW 2 6 1 3 1021.9 1021.7 0.0
31/06:00pm 20.6 22.8 17.4 82 2.0 NNW 2 6 1 3 1021.5 1021.3 0.0
31/05:30pm 20.9 22.3 17.3 80 2.2 S 6 7 3 4 1021.1 1020.9 0.0
31/05:00pm 21.2 23.0 17.4 79 2.3 SSW 4 4 2 2 1021.0 1020.8 0.0
31/04:30pm 21.1 22.9 17.5 80 2.2 S 4 6 2 3 1020.9 1020.7 0.0
31/04:00pm 20.8 22.0 17.4 81 2.1 SW 7 9 4 5 1020.8 1020.6 0.0
31/03:30pm 20.4 20.7 17.0 81 2.1 SW 11 17 6 9 1020.8 1020.6 0.0
31/03:00pm 23.3 23.9 16.8 67 4.0 SE 9 15 5 8 1020.8 1020.6 0.0
31/02:30pm 24.0 25.3 17.0 65 4.3 SE 6 15 3 8 1020.7 1020.5 0.0
31/02:00pm 24.6 25.3 16.1 59 5.2 ENE 7 13 4 7 1020.9 1020.7 0.0
31/01:30pm 25.3 26.3 16.4 57 5.5 NE 6 11 3 6 1021.1 1020.9 0.0
31/01:00pm 25.6 26.7 16.5 57 5.6 ENE 6 11 3 6 1021.2 1021.0 0.0
31/12:30pm 24.9 25.3 16.3 59 5.3 E 9 15 5 8 1021.5 1021.3 0.0
31/12:00pm 25.2 26.2 16.9 60 5.1 E 7 15 4 8 1022.2 1022.0 0.0
31/11:00am 24.4 25.0 15.9 59 5.2 E 7 15 4 8 1022.9 1022.6 0.0
31/10:30am 24.1 24.9 17.4 66 4.2 ESE 9 15 5 8 1023.2 1022.9 0.0
31/10:00am 23.9 26.5 17.4 67 4.0 CALM 0 0 0 0 1023.6 1023.3 0.0
31/09:30am 22.6 25.1 17.3 72 3.3 CALM 0 0 0 0 1023.8 1023.5 0.0
31/09:00am 21.6 22.9 17.2 76 2.7 SW 6 9 3 5 1023.8 1023.5 0.0
31/08:30am 21.3 23.6 17.7 80 2.2 WSW 2 9 1 5 1023.6 1023.3 0.0
31/08:00am 20.4 22.5 17.2 82 1.9 SSW 2 4 1 2 1023.4 1023.1 0.0
31/07:30am 19.6 21.7 17.2 86 1.5 SSE 2 4 1 2 1023.2 1022.9 0.0
31/07:00am 19.1 21.6 17.2 89 1.2 CALM 0 2 0 1 1022.6 1022.4 0.0
31/06:30am 18.7 20.3 16.9 89 1.1 SE 4 4 2 2 1022.3 1022.1 0.0
31/06:00am 18.5 20.8 16.7 89 1.1 CALM 0 0 0 0 1022.0 1021.8 0.0
31/05:30am 18.5 20.7 16.5 88 1.2 CALM 0 0 0 0 1021.6 1021.4 0.0
31/05:00am 18.8 21.1 16.8 88 1.2 CALM 0 0 0 0 1021.4 1021.2 0.0
31/04:30am 18.9 21.3 16.9 88 1.2 CALM 0 4 0 2 1021.6 1021.4 0.0
31/04:00am 18.8 20.8 16.9 89 1.1 SSW 2 6 1 3 1021.7 1021.5 0.0
31/03:30am 18.6 20.9 16.8 89 1.1 CALM 0 0 0 0 1021.3 1021.1 0.0
31/03:00am 18.7 20.8 16.3 86 1.4 CALM 0 2 0 1 1021.6 1021.4 0.0
31/02:30am 18.6 20.1 16.6 88 1.2 SE 4 4 2 2 1022.0 1021.8 0.0
31/02:00am 18.4 19.8 16.4 88 1.2 SSE 4 6 2 3 1022.2 1022.0 0.0
31/01:30am 18.0 19.7 16.2 89 1.1 S 2 4 1 2 1022.4 1022.2 0.0
31/01:00am 17.8 19.8 16.0 89 1.1 CALM 0 0 0 0 1022.6 1022.4 0.0
31/12:30am 18.0 20.1 16.2 89 1.1 CALM 0 0 0 0 1023.2 1022.9 0.0
 
Date/Time
EST
Temp
°C
App
Temp
°C
Dew
Point
Rel
Hum
%
Delta-T
°C
Wind Press
QNH
hPa
Press
MSL
hPa
Rain
since 9 am
mm
Dir
 
Spd
km/h
Gust
km/h
Spd
kts
Gust
kts
30/11:30pm 17.9 19.8 15.7 87 1.3 CALM 0 0 0 0 1023.3 1023.0 0.0
30/11:00pm 18.5 20.5 16.1 86 1.4 CALM 0 0 0 0 1023.4 1023.1 0.0
30/10:30pm 18.3 20.3 16.1 87 1.3 CALM 0 0 0 0 1023.6 1023.3 0.0
30/10:00pm 18.2 20.2 16.0 87 1.3 CALM 0 0 0 0 1023.6 1023.3 0.0
30/09:30pm 18.5 20.5 16.1 86 1.4 CALM 0 0 0 0 1023.7 1023.4 0.0
30/09:00pm 18.9 20.9 16.1 84 1.7 CALM 0 0 0 0 1023.7 1023.4 0.0
30/08:30pm 19.7 21.6 15.8 78 2.3 CALM 0 0 0 0 1023.7 1023.4 0.0
30/08:00pm 20.0 22.0 16.0 78 2.4 CALM 0 0 0 0 1023.5 1023.2 0.0
30/07:30pm 19.9 22.0 16.3 80 2.2 CALM 0 0 0 0 1023.4 1023.1 0.0
30/07:00pm 21.4 22.8 16.4 73 3.0 NE 4 6 2 3 1022.9 1022.6 0.0
30/06:30pm 22.2 24.4 16.5 70 3.5 CALM 0 0 0 0 1022.6 1022.4 0.0
30/06:00pm 22.8 24.5 16.1 66 4.0 ENE 2 6 1 3 1022.2 1022.0 0.0
30/05:30pm 23.5 24.3 15.8 62 4.7 E 6 9 3 5 1021.8 1021.6 0.0
30/05:00pm 24.1 24.6 15.6 59 5.1 ENE 7 15 4 8 1021.5 1021.3 0.0
30/04:30pm 25.0 25.1 15.6 56 5.7 NE 9 13 5 7 1021.3 1021.1 0.0
30/04:00pm 25.0 25.9 16.2 58 5.4 NE 6 7 3 4 1021.0 1020.8 0.0
30/03:30pm 24.8 25.5 16.0 58 5.4 NE 7 17 4 9 1020.8 1020.6 0.0
30/03:00pm 24.8 25.3 16.5 60 5.1 ENE 9 15 5 8 1020.6 1020.4 0.0
30/02:30pm 25.1 26.2 16.5 59 5.3 ENE 6 9 3 5 1021.0 1020.8 0.0
30/02:00pm 25.6 26.1 16.5 57 5.6 E 9 15 5 8 1021.4 1021.2 0.0
30/01:30pm 25.4 26.2 16.3 57 5.6 ENE 7 13 4 7 1021.2 1021.0 0.0
30/01:00pm 25.6 26.7 16.5 57 5.6 ENE 6 9 3 5 1021.4 1021.2 0.0
30/12:30pm 25.8 26.6 16.4 56 5.8 NE 7 13 4 7 1021.9 1021.7 0.0
30/12:00pm 25.6 26.7 17.0 59 5.3 E 7 11 4 6 1022.6 1022.4 0.0
30/11:30am 25.4 26.2 17.3 61 5.1 NE 9 13 5 7 1023.2 1022.9 0.0
30/11:00am 25.8 27.7 17.7 61 5.1 NE 4 13 2 7 1023.4 1023.1 0.0
30/10:30am 24.9 26.5 17.9 65 4.4 NW 6 9 3 5 1024.3 1024.0 0.0
30/10:00am 24.6 26.6 17.8 66 4.2 WNW 4 6 2 3 1024.5 1024.2 0.0
30/09:30am 23.3 25.5 18.4 74 3.1 SSW 4 7 2 4 1024.3 1024.0 0.0
30/09:00am 22.4 24.9 18.2 77 2.6 SSW 2 4 1 2 1024.5 1024.2 0.0
30/08:30am 21.7 23.8 18.1 80 2.2 SSW 4 6 2 3 1024.5 1024.2 0.0
30/08:00am 20.7 22.8 18.1 85 1.6 S 4 6 2 3 1024.4 1024.1 0.0
30/07:30am 19.9 21.6 17.1 84 1.7 SSW 4 6 2 3 1023.9 1023.6 0.0
30/07:00am 19.4 21.3 16.8 85 1.6 SE 2 6 1 3 1023.3 1023.0 0.0
30/06:30am 18.3 20.2 16.6 90 1.0 SSW 2 4 1 2 1023.2 1022.9 0.0
30/06:00am 18.2 20.4 16.5 90 1.0 CALM 0 0 0 0 1023.0 1022.7 0.0
30/05:30am 18.3 20.2 16.6 90 1.0 SSE 2 6 1 3 1022.6 1022.4 0.0
30/05:00am 17.9 19.8 16.6 92 0.8 S 2 6 1 3 1022.6 1022.4 0.0
30/04:30am 17.8 19.5 16.3 91 0.9 SE 2 2 1 1 1021.9 1021.7 0.0
30/04:00am 17.4 18.5 15.7 90 1.0 SSW 4 6 2 3 1021.9 1021.7 0.0
30/03:30am 17.8 19.8 16.1 90 1.0 CALM 0 0 0 0 1021.7 1021.5 0.0
30/03:00am 17.9 20.0 16.2 90 1.0 CALM 0 2 0 1 1021.9 1021.7 0.0
30/02:30am 17.8 19.8 16.0 89 1.1 CALM 0 0 0 0 1022.1 1021.9 0.0
30/02:00am 18.0 19.3 16.2 89 1.1 SSE 4 4 2 2 1022.2 1022.0 0.0
30/01:30am 18.0 20.1 16.2 89 1.1 CALM 0 0 0 0 1022.4 1022.2 0.0
30/01:00am 17.6 19.6 16.1 91 0.9 CALM 0 0 0 0 1022.5 1022.3 0.0
30/12:30am 17.2 19.0 15.4 89 1.1 CALM 0 0 0 0 1023.0 1022.7 0.0
30/12:00am 17.9 19.9 16.1 89 1.1 CALM 0 0 0 0 1023.0 1022.7 0.0
 
Date/Time
EST
Temp
°C
App
Temp
°C
Dew
Point
Rel
Hum
%
Delta-T
°C
Wind Press
QNH
hPa
Press
MSL
hPa
Rain
since 9 am
mm
Dir
 
Spd
km/h
Gust
km/h
Spd
kts
Gust
kts
29/11:30pm 17.6 19.5 15.8 89 1.1 CALM 0 0 0 0 1023.3 1023.0 0.0
29/11:00pm 17.9 19.8 15.7 87 1.3 CALM 0 0 0 0 1023.4 1023.1 0.0
29/10:30pm 18.4 20.5 16.2 87 1.3 CALM 0 0 0 0 1023.2 1022.9 0.0
29/10:00pm 18.7 20.4 16.1 85 1.5 SE 2 4 1 2 1023.4 1023.1 0.0
29/09:30pm 18.7 20.8 16.3 86 1.4 CALM 0 0 0 0 1023.6 1023.3 0.0
29/09:00pm 19.3 21.4 16.2 82 1.8 CALM 0 0 0 0 1023.5 1023.2 0.0
29/08:30pm 19.3 21.2 15.8 80 2.1 CALM 0 2 0 1 1023.5 1023.2 0.0
29/08:00pm 21.2 22.8 16.0 72 3.1 E 2 4 1 2 1023.2 1022.9 0.0
29/07:30pm 21.3 22.4 15.6 70 3.4 E 4 7 2 4 1022.9 1022.6 0.0
29/07:00pm 22.1 22.8 15.7 67 3.8 ENE 6 9 3 5 1022.5 1022.3 0.0
29/06:30pm 22.7 23.4 15.5 64 4.3 E 6 9 3 5 1022.1 1021.9 0.0
29/06:00pm 23.4 24.1 15.7 62 4.6 ENE 6 11 3 6 1021.6 1021.4 0.0
29/05:30pm 24.5 24.8 16.0 59 5.2 ENE 9 15 5 8 1021.4 1021.2 0.0
29/05:00pm 25.4 25.3 16.0 56 5.7 NE 11 19 6 10 1020.9 1020.7 0.0
29/04:30pm 26.2 26.2 16.2 54 6.2 NE 11 19 6 10 1020.7 1020.5 0.0
29/04:00pm 26.8 26.6 16.7 54 6.3 NE 13 24 7 13 1020.6 1020.4 0.0
29/03:30pm 27.3 26.9 16.3 51 6.8 ENE 13 20 7 11 1020.3 1020.1 0.0
29/03:00pm 28.4 28.7 17.0 50 7.1 ENE 11 19 6 10 1020.3 1020.1 0.0
29/02:30pm 28.9 29.5 16.8 48 7.6 NNE 9 19 5 10 1020.6 1020.4 0.0
29/02:00pm 28.1 29.1 16.4 49 7.3 NNE 6 11 3 6 1020.8 1020.6 0.0
29/01:30pm 27.0 27.1 16.6 53 6.5 ENE 11 17 6 9 1020.8 1020.6 0.0
29/01:00pm 26.7 27.2 16.6 54 6.2 E 9 15 5 8 1021.3 1021.1 0.0
29/12:30pm 27.6 28.6 16.9 52 6.7 NNE 7 13 4 7 1021.8 1021.6 0.0
29/12:00pm 27.2 28.5 17.1 54 6.3 E 6 11 3 6 1022.0 1021.8 0.0
29/11:30am 27.8 29.0 17.3 52 6.6 NE 7 13 4 7 1022.6 1022.4 0.0
29/11:00am 26.4 27.1 16.1 53 6.3 N 7 13 4 7 1023.2 1022.9 0.0
29/10:30am 26.7 27.7 16.9 55 6.1 NE 7 13 4 7 1023.6 1023.3 0.0
29/10:00am 25.3 26.6 17.0 60 5.1 NE 6 11 3 6 1023.9 1023.6 0.0
29/09:30am 25.7 27.4 18.1 63 4.8 E 6 11 3 6 1023.8 1023.5 0.0
29/09:00am 25.9 26.9 17.8 61 5.1 ENE 9 15 5 8 1023.8 1023.5 0.0
29/08:30am 24.5 26.9 18.9 71 3.6 SSW 4 6 2 3 1023.5 1023.2 0.0
29/08:00am 22.7 25.1 18.9 79 2.4 SSW 4 6 2 3 1023.4 1023.1 0.0
29/07:30am 21.4 24.4 19.3 88 1.3 SSW 2 2 1 1 1023.0 1022.7 0.0
29/07:00am 20.7 23.9 18.8 89 1.2 CALM 0 0 0 0 1022.4 1022.2 0.0
29/06:30am 20.4 23.4 18.5 89 1.2 CALM 0 0 0 0 1022.0 1021.8 0.0
29/06:00am 20.3 23.4 18.6 90 1.1 CALM 0 0 0 0 1021.7 1021.5 0.0
29/05:30am 20.3 23.4 18.6 90 1.1 CALM 0 2 0 1 1021.4 1021.2 0.0
29/05:00am 20.1 23.0 18.2 89 1.2 CALM 0 0 0 0 1021.0 1020.8 0.0
29/04:30am 20.2 23.1 18.3 89 1.2 CALM 0 0 0 0 1020.6 1020.4 0.0
29/04:00am 20.4 23.3 18.2 87 1.4 CALM 0 0 0 0 1020.5 1020.3 0.0
29/03:30am 20.4 23.3 18.3 88 1.3 CALM 0 0 0 0 1020.4 1020.2 0.0
29/03:00am 20.2 23.1 18.1 88 1.3 CALM 0 0 0 0 1020.1 1019.9 0.0
29/02:30am 20.4 23.3 18.2 87 1.4 CALM 0 0 0 0 1020.4 1020.2 0.0
29/02:00am 20.4 22.9 18.2 87 1.4 E 2 4 1 2 1020.6 1020.4 0.0
29/01:30am 20.3 23.3 18.4 89 1.2 CALM 0 2 0 1 1021.2 1021.0 0.0
29/01:00am 19.8 22.5 17.8 88 1.2 CALM 0 0 0 0 1021.1 1020.9 0.0
29/12:30am 20.3 23.1 17.9 86 1.5 CALM 0 0 0 0 1021.2 1021.0 0.0
29/12:00am 21.1 24.0 18.3 84 1.7 CALM 0 0 0 0 1021.2 1021.0 0.0
 
Date/Time
EST
Temp
°C
App
Temp
°C
Dew
Point
Rel
Hum
%
Delta-T
°C
Wind Press
QNH
hPa
Press
MSL
hPa
Rain
since 9 am
mm
Dir
 
Spd
km/h
Gust
km/h
Spd
kts
Gust
kts
28/11:30pm 21.5 24.1 18.5 83 1.9 ENE 2 4 1 2 1021.4 1021.2 0.0
28/11:00pm 21.4 24.3 18.2 82 2.0 CALM 0 2 0 1 1021.9 1021.7 0.0

Other Formats:

Comma delimited format used in spreadsheet applications
http://www.bom.gov.au/fwo/IDQ60801/IDQ60801.95575.axf

JavaScript Object Notation format (JSON) in row-major order
http://www.bom.gov.au/fwo/IDQ60801/IDQ60801.95575.json